Glazier, Texas
Current Conditions -  °F | °C
As of 11:15 PM on Sunday 19 Oct 2014 (Local Time) from KHHF Reporting Station
Clear Clear  
Wind Chill: 62°   Ceiling: Unl
Heat Index: 62°   Visibility: 10mi
Dew Point: 58°   Wind: 3mph
Humidity: 87%   Direction: 230°SW
Pressure: 30.03"   Gusts: NA
Location:  35.8376°N, 100.27°W
Report Text: KHHF 200415Z AUTO 23003KT 10SM CLR 16/14 A3003 RMK AO2 T01640143
Loading
Personal Weather Stations






























Interactive Weather Map
Tropical Storm Tracking
New forecast layout! Learn more

10-Day Weather Forecast

Advertisements
Track Severe Weather on mobile